sensor_id;sensor_type;location;lat;lon;timestamp;pressure;altitude;pressure_sealevel;temperature;humidity
60355;BME280;46198;51.464;-0.066;2023-08-24T00:01:20;101495.78;;;20.81;100.00
60355;BME280;46198;51.464;-0.066;2023-08-24T00:03:49;101489.97;;;20.77;100.00
60355;BME280;46198;51.464;-0.066;2023-08-24T00:06:17;101506.53;;;20.72;100.00
60355;BME280;46198;51.464;-0.066;2023-08-24T00:08:46;101499.34;;;20.71;100.00
60355;BME280;46198;51.464;-0.066;2023-08-24T00:11:14;101493.28;;;20.69;100.00
60355;BME280;46198;51.464;-0.066;2023-08-24T00:13:42;101495.44;;;20.62;100.00
60355;BME280;46198;51.464;-0.066;2023-08-24T00:16:15;101480.50;;;20.53;100.00
60355;BME280;46198;51.464;-0.066;2023-08-24T00:18:44;101478.59;;;20.53;100.00
60355;BME280;46198;51.464;-0.066;2023-08-24T00:21:14;101482.69;;;20.51;100.00
60355;BME280;46198;51.464;-0.066;2023-08-24T00:23:44;101481.59;;;20.47;100.00
60355;BME280;46198;51.464;-0.066;2023-08-24T00:26:12;101473.81;;;20.44;100.00
60355;BME280;46198;51.464;-0.066;2023-08-24T00:28:40;101469.13;;;20.39;100.00
60355;BME280;46198;51.464;-0.066;2023-08-24T00:31:08;101474.09;;;20.37;100.00
60355;BME280;46198;51.464;-0.066;2023-08-24T00:33:36;101476.56;;;20.33;100.00
60355;BME280;46198;51.464;-0.066;2023-08-24T00:36:05;101475.75;;;20.33;100.00
60355;BME280;46198;51.464;-0.066;2023-08-24T00:38:35;101480.94;;;20.29;100.00
60355;BME280;46198;51.464;-0.066;2023-08-24T00:41:04;101473.78;;;20.28;100.00
60355;BME280;46198;51.464;-0.066;2023-08-24T00:43:32;101480.66;;;20.26;100.00
60355;BME280;46198;51.464;-0.066;2023-08-24T00:46:01;101482.59;;;20.25;100.00
60355;BME280;46198;51.464;-0.066;2023-08-24T00:48:31;101477.34;;;20.24;100.00
60355;BME280;46198;51.464;-0.066;2023-08-24T00:51:01;101466.03;;;20.20;100.00
60355;BME280;46198;51.464;-0.066;2023-08-24T00:53:31;101467.41;;;20.18;100.00
60355;BME280;46198;51.464;-0.066;2023-08-24T00:56:01;101469.00;;;20.13;100.00
60355;BME280;46198;51.464;-0.066;2023-08-24T00:58:29;101472.59;;;20.09;100.00
60355;BME280;46198;51.464;-0.066;2023-08-24T01:00:59;101473.69;;;20.08;100.00
60355;BME280;46198;51.464;-0.066;2023-08-24T01:03:28;101476.97;;;20.05;100.00
60355;BME280;46198;51.464;-0.066;2023-08-24T01:05:56;101475.56;;;20.02;100.00
60355;BME280;46198;51.464;-0.066;2023-08-24T01:08:24;101475.28;;;19.99;100.00
60355;BME280;46198;51.464;-0.066;2023-08-24T01:10:58;101479.16;;;19.98;100.00
60355;BME280;46198;51.464;-0.066;2023-08-24T01:13:33;101473.31;;;19.94;100.00
60355;BME280;46198;51.464;-0.066;2023-08-24T01:16:06;101466.44;;;19.91;100.00
60355;BME280;46198;51.464;-0.066;2023-08-24T01:18:38;101457.03;;;19.87;100.00
60355;BME280;46198;51.464;-0.066;2023-08-24T01:21:07;101450.41;;;19.83;100.00
60355;BME280;46198;51.464;-0.066;2023-08-24T01:23:41;101452.03;;;19.79;100.00
60355;BME280;46198;51.464;-0.066;2023-08-24T01:26:14;101461.34;;;19.73;100.00
60355;BME280;46198;51.464;-0.066;2023-08-24T01:28:45;101454.16;;;19.67;100.00
60355;BME280;46198;51.464;-0.066;2023-08-24T01:31:14;101454.47;;;19.70;100.00
60355;BME280;46198;51.464;-0.066;2023-08-24T01:33:44;101457.72;;;19.67;100.00
60355;BME280;46198;51.464;-0.066;2023-08-24T01:36:13;101450.25;;;19.63;100.00
60355;BME280;46198;51.464;-0.066;2023-08-24T01:38:45;101442.78;;;19.58;100.00
60355;BME280;46198;51.464;-0.066;2023-08-24T01:41:20;101433.69;;;19.58;100.00
60355;BME280;46198;51.464;-0.066;2023-08-24T01:43:52;101433.38;;;19.54;100.00
60355;BME280;46198;51.464;-0.066;2023-08-24T01:46:22;101418.78;;;19.54;100.00
60355;BME280;46198;51.464;-0.066;2023-08-24T01:48:52;101424.00;;;19.50;100.00
60355;BME280;46198;51.464;-0.066;2023-08-24T01:51:21;101415.44;;;19.46;100.00
60355;BME280;46198;51.464;-0.066;2023-08-24T01:53:52;101396.69;;;19.43;100.00
60355;BME280;46198;51.464;-0.066;2023-08-24T01:56:21;101396.69;;;19.43;100.00
60355;BME280;46198;51.464;-0.066;2023-08-24T01:59:15;101392.81;;;19.39;100.00
60355;BME280;46198;51.464;-0.066;2023-08-24T02:01:43;101398.06;;;19.41;100.00
60355;BME280;46198;51.464;-0.066;2023-08-24T02:04:11;101398.84;;;19.36;100.00
60355;BME280;46198;51.464;-0.066;2023-08-24T02:06:39;101394.72;;;19.39;100.00
60355;BME280;46198;51.464;-0.066;2023-08-24T02:09:07;101383.09;;;19.32;100.00
60355;BME280;46198;51.464;-0.066;2023-08-24T02:11:37;101385.81;;;19.26;100.00
60355;BME280;46198;51.464;-0.066;2023-08-24T02:14:05;101370.66;;;19.24;100.00
60355;BME280;46198;51.464;-0.066;2023-08-24T02:16:36;101364.88;;;19.20;100.00
60355;BME280;46198;51.464;-0.066;2023-08-24T02:19:05;101345.84;;;19.19;100.00
60355;BME280;46198;51.464;-0.066;2023-08-24T02:21:35;101325.47;;;19.15;100.00
60355;BME280;46198;51.464;-0.066;2023-08-24T02:24:04;101324.06;;;19.12;100.00
60355;BME280;46198;51.464;-0.066;2023-08-24T02:26:32;101312.22;;;19.12;100.00
60355;BME280;46198;51.464;-0.066;2023-08-24T02:29:01;101311.66;;;19.10;100.00
60355;BME280;46198;51.464;-0.066;2023-08-24T02:31:29;101317.44;;;19.08;100.00
60355;BME280;46198;51.464;-0.066;2023-08-24T02:33:57;101335.84;;;19.08;100.00
60355;BME280;46198;51.464;-0.066;2023-08-24T02:36:25;101325.38;;;19.04;100.00
60355;BME280;46198;51.464;-0.066;2023-08-24T02:38:55;101327.31;;;19.04;100.00
60355;BME280;46198;51.464;-0.066;2023-08-24T02:41:24;101319.59;;;19.01;100.00
60355;BME280;46198;51.464;-0.066;2023-08-24T02:43:52;101305.53;;;18.97;100.00
60355;BME280;46198;51.464;-0.066;2023-08-24T02:46:21;101306.59;;;18.96;100.00
60355;BME280;46198;51.464;-0.066;2023-08-24T02:48:49;101298.88;;;18.93;100.00
60355;BME280;46198;51.464;-0.066;2023-08-24T02:51:19;101309.91;;;18.93;100.00
60355;BME280;46198;51.464;-0.066;2023-08-24T02:53:48;101299.41;;;18.90;100.00
60355;BME280;46198;51.464;-0.066;2023-08-24T02:56:16;101304.34;;;18.88;100.00
60355;BME280;46198;51.464;-0.066;2023-08-24T02:58:44;101314.28;;;18.94;100.00
60355;BME280;46198;51.464;-0.066;2023-08-24T03:01:12;101302.75;;;18.92;100.00
60355;BME280;46198;51.464;-0.066;2023-08-24T03:03:42;101307.41;;;18.92;100.00
60355;BME280;46198;51.464;-0.066;2023-08-24T03:06:10;101301.63;;;18.93;100.00
60355;BME280;46198;51.464;-0.066;2023-08-24T03:08:39;101299.47;;;18.95;100.00
60355;BME280;46198;51.464;-0.066;2023-08-24T03:11:07;101298.94;;;18.98;100.00
60355;BME280;46198;51.464;-0.066;2023-08-24T03:13:37;101308.00;;;18.99;100.00
60355;BME280;46198;51.464;-0.066;2023-08-24T03:16:07;101309.69;;;19.00;100.00
60355;BME280;46198;51.464;-0.066;2023-08-24T03:18:36;101317.94;;;19.00;100.00
60355;BME280;46198;51.464;-0.066;2023-08-24T03:21:06;101327.03;;;19.00;100.00
60355;BME280;46198;51.464;-0.066;2023-08-24T03:23:34;101321.56;;;19.06;100.00
60355;BME280;46198;51.464;-0.066;2023-08-24T03:26:02;101301.75;;;19.09;100.00
60355;BME280;46198;51.464;-0.066;2023-08-24T03:28:32;101281.13;;;19.11;100.00
60355;BME280;46198;51.464;-0.066;2023-08-24T03:31:00;101280.03;;;19.12;100.00
60355;BME280;46198;51.464;-0.066;2023-08-24T03:33:28;101291.31;;;19.16;100.00
60355;BME280;46198;51.464;-0.066;2023-08-24T03:35:57;101288.31;;;19.17;100.00
60355;BME280;46198;51.464;-0.066;2023-08-24T03:38:27;101273.72;;;19.17;100.00
60355;BME280;46198;51.464;-0.066;2023-08-24T03:41:00;101255.84;;;19.19;100.00
60355;BME280;46198;51.464;-0.066;2023-08-24T03:43:31;101248.94;;;19.17;100.00
60355;BME280;46198;51.464;-0.066;2023-08-24T03:46:00;101259.13;;;19.16;100.00
60355;BME280;46198;51.464;-0.066;2023-08-24T03:48:28;101254.50;;;19.22;100.00
60355;BME280;46198;51.464;-0.066;2023-08-24T03:50:56;101247.31;;;19.21;100.00
60355;BME280;46198;51.464;-0.066;2023-08-24T03:53:26;101238.78;;;19.22;100.00
60355;BME280;46198;51.464;-0.066;2023-08-24T03:55:54;101229.72;;;19.22;100.00
60355;BME280;46198;51.464;-0.066;2023-08-24T03:58:23;101234.38;;;19.21;100.00
60355;BME280;46198;51.464;-0.066;2023-08-24T04:00:52;101239.38;;;19.24;100.00
60355;BME280;46198;51.464;-0.066;2023-08-24T04:03:21;101241.81;;;19.26;100.00
60355;BME280;46198;51.464;-0.066;2023-08-24T04:05:50;101234.97;;;19.29;100.00
60355;BME280;46198;51.464;-0.066;2023-08-24T04:08:18;101245.97;;;19.29;100.00
60355;BME280;46198;51.464;-0.066;2023-08-24T04:10:47;101242.97;;;19.30;100.00
60355;BME280;46198;51.464;-0.066;2023-08-24T04:13:16;101250.13;;;19.31;100.00
60355;BME280;46198;51.464;-0.066;2023-08-24T04:15:44;101244.34;;;19.33;100.00
60355;BME280;46198;51.464;-0.066;2023-08-24T04:18:13;101233.88;;;19.35;100.00
60355;BME280;46198;51.464;-0.066;2023-08-24T04:20:41;101218.19;;;19.30;100.00
60355;BME280;46198;51.464;-0.066;2023-08-24T04:23:09;101229.72;;;19.32;100.00
60355;BME280;46198;51.464;-0.066;2023-08-24T04:25:39;101230.84;;;19.31;100.00
60355;BME280;46198;51.464;-0.066;2023-08-24T04:28:09;101225.09;;;19.33;100.00
60355;BME280;46198;51.464;-0.066;2023-08-24T04:30:38;101254.81;;;19.31;100.00
60355;BME280;46198;51.464;-0.066;2023-08-24T04:33:06;101279.28;;;19.32;100.00
60355;BME280;46198;51.464;-0.066;2023-08-24T04:35:34;101293.09;;;19.37;100.00
60355;BME280;46198;51.464;-0.066;2023-08-24T04:38:03;101284.03;;;19.42;100.00
60355;BME280;46198;51.464;-0.066;2023-08-24T04:40:48;101262.28;;;19.45;100.00
60355;BME280;46198;51.464;-0.066;2023-08-24T04:43:18;101243.84;;;19.51;100.00
60355;BME280;46198;51.464;-0.066;2023-08-24T04:45:48;101234.78;;;19.56;100.00
60355;BME280;46198;51.464;-0.066;2023-08-24T04:48:19;101245.25;;;19.54;100.00
60355;BME280;46198;51.464;-0.066;2023-08-24T04:50:48;101247.19;;;19.53;100.00
60355;BME280;46198;51.464;-0.066;2023-08-24T04:53:17;101257.66;;;19.56;100.00
60355;BME280;46198;51.464;-0.066;2023-08-24T04:55:46;101259.59;;;19.56;100.00
60355;BME280;46198;51.464;-0.066;2023-08-24T04:58:14;101243.63;;;19.58;100.00
60355;BME280;46198;51.464;-0.066;2023-08-24T05:00:44;101219.41;;;19.60;100.00
60355;BME280;46198;51.464;-0.066;2023-08-24T05:03:12;101183.00;;;19.47;100.00
60355;BME280;46198;51.464;-0.066;2023-08-24T05:05:41;101202.28;;;19.53;100.00
60355;BME280;46198;51.464;-0.066;2023-08-24T05:08:09;101227.63;;;19.49;100.00
60355;BME280;46198;51.464;-0.066;2023-08-24T05:10:39;101240.84;;;19.53;100.00
60355;BME280;46198;51.464;-0.066;2023-08-24T05:13:08;101233.41;;;19.53;100.00
60355;BME280;46198;51.464;-0.066;2023-08-24T05:15:36;101240.56;;;19.54;100.00
60355;BME280;46198;51.464;-0.066;2023-08-24T05:18:06;101249.69;;;19.55;100.00
60355;BME280;46198;51.464;-0.066;2023-08-24T05:20:34;101237.56;;;19.61;100.00
60355;BME280;46198;51.464;-0.066;2023-08-24T05:23:02;101230.69;;;19.63;100.00
60355;BME280;46198;51.464;-0.066;2023-08-24T05:25:30;101228.19;;;19.62;100.00
60355;BME280;46198;51.464;-0.066;2023-08-24T05:28:00;101227.38;;;19.61;100.00
60355;BME280;46198;51.464;-0.066;2023-08-24T05:30:30;101235.91;;;19.60;100.00
60355;BME280;46198;51.464;-0.066;2023-08-24T05:32:58;101239.22;;;19.62;100.00
60355;BME280;46198;51.464;-0.066;2023-08-24T05:35:28;101242.53;;;19.64;100.00
60355;BME280;46198;51.464;-0.066;2023-08-24T05:37:56;101234.88;;;19.66;100.00
60355;BME280;46198;51.464;-0.066;2023-08-24T05:40:24;101236.75;;;19.65;100.00
60355;BME280;46198;51.464;-0.066;2023-08-24T05:42:52;101212.22;;;19.64;100.00
60355;BME280;46198;51.464;-0.066;2023-08-24T05:45:20;101223.25;;;19.64;100.00
60355;BME280;46198;51.464;-0.066;2023-08-24T05:47:52;101230.41;;;19.65;100.00
60355;BME280;46198;51.464;-0.066;2023-08-24T05:50:20;101245.88;;;19.66;100.00
60355;BME280;46198;51.464;-0.066;2023-08-24T05:52:50;101242.84;;;19.67;100.00
60355;BME280;46198;51.464;-0.066;2023-08-24T05:55:18;101254.66;;;19.63;100.00
60355;BME280;46198;51.464;-0.066;2023-08-24T05:57:46;101248.31;;;19.57;100.00
60355;BME280;46198;51.464;-0.066;2023-08-24T06:00:16;101233.16;;;19.55;100.00
60355;BME280;46198;51.464;-0.066;2023-08-24T06:02:44;101219.34;;;19.44;100.00
60355;BME280;46198;51.464;-0.066;2023-08-24T06:05:12;101209.97;;;19.45;100.00
60355;BME280;46198;51.464;-0.066;2023-08-24T06:07:40;101206.66;;;19.38;100.00
60355;BME280;46198;51.464;-0.066;2023-08-24T06:10:10;101191.22;;;19.37;100.00
60355;BME280;46198;51.464;-0.066;2023-08-24T06:12:38;101203.88;;;19.33;100.00
60355;BME280;46198;51.464;-0.066;2023-08-24T06:15:07;101205.53;;;19.34;100.00
60355;BME280;46198;51.464;-0.066;2023-08-24T06:17:37;101204.69;;;19.34;100.00
60355;BME280;46198;51.464;-0.066;2023-08-24T06:20:07;101212.94;;;19.29;100.00
60355;BME280;46198;51.464;-0.066;2023-08-24T06:22:37;101214.56;;;19.30;100.00
60355;BME280;46198;51.464;-0.066;2023-08-24T06:25:06;101203.06;;;19.33;100.00
60355;BME280;46198;51.464;-0.066;2023-08-24T06:27:37;101214.56;;;19.30;100.00
60355;BME280;46198;51.464;-0.066;2023-08-24T06:30:06;101186.75;;;19.26;100.00
60355;BME280;46198;51.464;-0.066;2023-08-24T06:32:34;101185.16;;;19.30;100.00
60355;BME280;46198;51.464;-0.066;2023-08-24T06:35:05;101180.44;;;19.25;100.00
60355;BME280;46198;51.464;-0.066;2023-08-24T06:37:33;101179.91;;;19.29;100.00
60355;BME280;46198;51.464;-0.066;2023-08-24T06:40:02;101195.06;;;19.31;100.00
60355;BME280;46198;51.464;-0.066;2023-08-24T06:42:32;101198.34;;;19.28;100.00
60355;BME280;46198;51.464;-0.066;2023-08-24T06:45:02;101200.00;;;19.34;100.00
60355;BME280;46198;51.464;-0.066;2023-08-24T06:47:30;101202.19;;;19.32;100.00
60355;BME280;46198;51.464;-0.066;2023-08-24T06:49:58;101206.63;;;19.33;100.00
60355;BME280;46198;51.464;-0.066;2023-08-24T06:52:27;101209.94;;;19.35;100.00
60355;BME280;46198;51.464;-0.066;2023-08-24T06:54:55;101205.81;;;19.38;100.00
60355;BME280;46198;51.464;-0.066;2023-08-24T06:57:23;101216.00;;;19.37;100.00
60355;BME280;46198;51.464;-0.066;2023-08-24T06:59:51;101224.03;;;19.44;100.00
60355;BME280;46198;51.464;-0.066;2023-08-24T07:02:21;101236.69;;;19.45;100.00
60355;BME280;46198;51.464;-0.066;2023-08-24T07:04:49;101222.09;;;19.44;100.00
60355;BME280;46198;51.464;-0.066;2023-08-24T07:07:18;101204.44;;;19.40;100.00
60355;BME280;46198;51.464;-0.066;2023-08-24T07:09:46;101211.63;;;19.41;100.00
60355;BME280;46198;51.464;-0.066;2023-08-24T07:12:14;101237.75;;;19.39;100.00
60355;BME280;46198;51.464;-0.066;2023-08-24T07:14:42;101232.00;;;19.51;100.00
60355;BME280;46198;51.464;-0.066;2023-08-24T07:17:10;101225.44;;;19.62;100.00
60355;BME280;46198;51.464;-0.066;2023-08-24T07:19:40;101226.56;;;19.61;100.00
60355;BME280;46198;51.464;-0.066;2023-08-24T07:22:08;101224.34;;;19.63;100.00
60355;BME280;46198;51.464;-0.066;2023-08-24T07:24:36;101218.88;;;19.73;100.00
60355;BME280;46198;51.464;-0.066;2023-08-24T07:27:12;101206.72;;;19.64;100.00
60355;BME280;46198;51.464;-0.066;2023-08-24T07:29:41;101204.56;;;19.71;100.00
60355;BME280;46198;51.464;-0.066;2023-08-24T07:32:09;101191.63;;;19.77;100.00
60355;BME280;46198;51.464;-0.066;2023-08-24T07:34:37;101190.53;;;19.83;100.00
60355;BME280;46198;51.464;-0.066;2023-08-24T07:37:07;101189.13;;;19.75;100.00
60355;BME280;46198;51.464;-0.066;2023-08-24T07:39:35;101183.06;;;19.73;100.00
60355;BME280;46198;51.464;-0.066;2023-08-24T07:42:03;101162.97;;;19.78;100.00
60355;BME280;46198;51.464;-0.066;2023-08-24T07:44:31;101161.03;;;19.73;100.00
60355;BME280;46198;51.464;-0.066;2023-08-24T07:47:00;101157.75;;;19.76;100.00
60355;BME280;46198;51.464;-0.066;2023-08-24T07:49:28;101164.34;;;19.75;100.00
60355;BME280;46198;51.464;-0.066;2023-08-24T07:51:56;101165.72;;;19.78;100.00
60355;BME280;46198;51.464;-0.066;2023-08-24T07:54:26;101147.81;;;19.70;100.00
60355;BME280;46198;51.464;-0.066;2023-08-24T07:56:54;101135.16;;;19.74;100.00
60355;BME280;46198;51.464;-0.066;2023-08-24T07:59:23;101126.63;;;19.70;100.00
60355;BME280;46198;51.464;-0.066;2023-08-24T08:01:51;101129.06;;;19.72;100.00
60355;BME280;46198;51.464;-0.066;2023-08-24T08:04:19;101127.44;;;19.71;100.00
60355;BME280;46198;51.464;-0.066;2023-08-24T08:06:47;101119.69;;;19.73;100.00
60355;BME280;46198;51.464;-0.066;2023-08-24T08:09:15;101123.84;;;19.70;100.00
60355;BME280;46198;51.464;-0.066;2023-08-24T08:11:45;101133.22;;;19.75;100.00
60355;BME280;46198;51.464;-0.066;2023-08-24T08:14:13;101136.25;;;19.83;100.00
60355;BME280;46198;51.464;-0.066;2023-08-24T08:16:42;101131.56;;;19.84;100.00
60355;BME280;46198;51.464;-0.066;2023-08-24T08:19:10;101142.88;;;19.87;100.00
60355;BME280;46198;51.464;-0.066;2023-08-24T08:21:38;101129.94;;;19.93;100.00
60355;BME280;46198;51.464;-0.066;2023-08-24T08:24:06;101115.59;;;19.96;100.00
60355;BME280;46198;51.464;-0.066;2023-08-24T08:26:34;101099.63;;;19.98;100.00
60355;BME280;46198;51.464;-0.066;2023-08-24T08:29:04;101089.97;;;20.06;100.00
60355;BME280;46198;51.464;-0.066;2023-08-24T08:31:32;101084.44;;;20.06;100.00
60355;BME280;46198;51.464;-0.066;2023-08-24T08:34:00;101088.03;;;20.06;100.00
60355;BME280;46198;51.464;-0.066;2023-08-24T08:36:31;101086.09;;;20.12;100.00
60355;BME280;46198;51.464;-0.066;2023-08-24T08:38:59;101089.66;;;20.12;100.00
60355;BME280;46198;51.464;-0.066;2023-08-24T08:41:31;101076.69;;;20.18;100.00
60355;BME280;46198;51.464;-0.066;2023-08-24T08:44:05;101070.63;;;20.26;100.00
60355;BME280;46198;51.464;-0.066;2023-08-24T08:46:33;101070.09;;;20.14;100.00
60355;BME280;46198;51.464;-0.066;2023-08-24T08:49:01;101051.31;;;20.21;100.00
60355;BME280;46198;51.464;-0.066;2023-08-24T08:51:31;101046.63;;;20.27;100.00
60355;BME280;46198;51.464;-0.066;2023-08-24T08:53:59;101049.13;;;20.28;100.00
60355;BME280;46198;51.464;-0.066;2023-08-24T08:56:27;101051.31;;;20.31;100.00
60355;BME280;46198;51.464;-0.066;2023-08-24T08:58:56;101040.81;;;20.33;100.00
60355;BME280;46198;51.464;-0.066;2023-08-24T09:01:27;101027.28;;;20.37;100.00
60355;BME280;46198;51.464;-0.066;2023-08-24T09:03:57;101026.44;;;20.47;100.00
60355;BME280;46198;51.464;-0.066;2023-08-24T09:06:25;101034.16;;;20.50;100.00
60355;BME280;46198;51.464;-0.066;2023-08-24T09:08:53;101052.66;;;20.44;100.00
60355;BME280;46198;51.464;-0.066;2023-08-24T09:11:22;101073.34;;;20.47;100.00
60355;BME280;46198;51.464;-0.066;2023-08-24T09:13:51;101081.31;;;20.48;100.00
60355;BME280;46198;51.464;-0.066;2023-08-24T09:16:19;101105.91;;;20.55;100.00
60355;BME280;46198;51.464;-0.066;2023-08-24T09:18:49;101118.56;;;20.51;100.00
60355;BME280;46198;51.464;-0.066;2023-08-24T09:21:17;101122.69;;;20.43;100.00
60355;BME280;46198;51.464;-0.066;2023-08-24T09:23:51;101130.16;;;20.48;100.00
60355;BME280;46198;51.464;-0.066;2023-08-24T09:26:27;101133.19;;;20.56;100.00
60355;BME280;46198;51.464;-0.066;2023-08-24T09:28:55;101138.13;;;20.59;100.00
60355;BME280;46198;51.464;-0.066;2023-08-24T09:31:23;101121.88;;;20.63;100.00
60355;BME280;46198;51.464;-0.066;2023-08-24T09:33:59;101121.31;;;20.66;100.00
60355;BME280;46198;51.464;-0.066;2023-08-24T09:36:30;101113.59;;;20.68;100.00
60355;BME280;46198;51.464;-0.066;2023-08-24T09:38:59;101106.94;;;20.74;100.00
60355;BME280;46198;51.464;-0.066;2023-08-24T09:41:37;101081.78;;;20.76;100.00
60355;BME280;46198;51.464;-0.066;2023-08-24T09:44:07;101067.13;;;20.91;100.00
60355;BME280;46198;51.464;-0.066;2023-08-24T09:46:35;101054.94;;;20.97;100.00
60355;BME280;46198;51.464;-0.066;2023-08-24T09:49:07;101069.06;;;21.35;100.00
60355;BME280;46198;51.464;-0.066;2023-08-24T09:51:36;101063.50;;;21.45;100.00
60355;BME280;46198;51.464;-0.066;2023-08-24T09:54:06;101050.63;;;21.69;100.00
60355;BME280;46198;51.464;-0.066;2023-08-24T09:56:36;101053.81;;;21.82;100.00
60355;BME280;46198;51.464;-0.066;2023-08-24T09:59:10;101048.72;;;21.94;100.00
60355;BME280;46198;51.464;-0.066;2023-08-24T10:01:42;101042.63;;;21.97;100.00
60355;BME280;46198;51.464;-0.066;2023-08-24T10:04:12;101039.72;;;21.83;100.00
60355;BME280;46198;51.464;-0.066;2023-08-24T10:06:42;101037.97;;;22.22;100.00
60355;BME280;46198;51.464;-0.066;2023-08-24T10:09:16;101016.72;;;22.41;100.00
60355;BME280;46198;51.464;-0.066;2023-08-24T10:11:50;101015.41;;;22.57;100.00
60355;BME280;46198;51.464;-0.066;2023-08-24T10:14:25;101041.19;;;22.77;100.00
60355;BME280;46198;51.464;-0.066;2023-08-24T10:16:55;101035.72;;;23.15;100.00
60355;BME280;46198;51.464;-0.066;2023-08-24T10:19:25;101040.50;;;23.28;100.00
60355;BME280;46198;51.464;-0.066;2023-08-24T10:21:55;101048.59;;;23.43;100.00
60355;BME280;46198;51.464;-0.066;2023-08-24T10:24:25;101045.66;;;23.54;100.00
60355;BME280;46198;51.464;-0.066;2023-08-24T10:26:54;101039.53;;;23.89;100.00
60355;BME280;46198;51.464;-0.066;2023-08-24T10:29:23;101043.88;;;24.23;100.00
60355;BME280;46198;51.464;-0.066;2023-08-24T10:31:53;101046.91;;;24.41;100.00
60355;BME280;46198;51.464;-0.066;2023-08-24T10:34:22;101047.84;;;24.50;100.00
60355;BME280;46198;51.464;-0.066;2023-08-24T10:36:51;101058.91;;;24.36;100.00
60355;BME280;46198;51.464;-0.066;2023-08-24T10:39:27;101064.31;;;24.46;100.00
60355;BME280;46198;51.464;-0.066;2023-08-24T10:41:55;101063.16;;;24.47;100.00
60355;BME280;46198;51.464;-0.066;2023-08-24T10:44:25;101061.09;;;24.53;100.00
60355;BME280;46198;51.464;-0.066;2023-08-24T10:47:22;101055.25;;;24.68;100.00
60355;BME280;46198;51.464;-0.066;2023-08-24T10:49:59;101055.13;;;24.73;100.00
60355;BME280;46198;51.464;-0.066;2023-08-24T10:52:32;101069.19;;;24.91;100.00
60355;BME280;46198;51.464;-0.066;2023-08-24T10:55:01;101063.63;;;25.18;100.00
60355;BME280;46198;51.464;-0.066;2023-08-24T10:57:35;101052.34;;;25.37;100.00
60355;BME280;46198;51.464;-0.066;2023-08-24T11:00:05;101048.50;;;25.47;100.00
60355;BME280;46198;51.464;-0.066;2023-08-24T11:02:42;101036.63;;;25.33;100.00
60355;BME280;46198;51.464;-0.066;2023-08-24T11:05:15;101042.31;;;25.50;100.00
60355;BME280;46198;51.464;-0.066;2023-08-24T11:07:53;101043.63;;;25.30;100.00
60355;BME280;46198;51.464;-0.066;2023-08-24T11:10:23;101053.81;;;25.57;100.00
60355;BME280;46198;51.464;-0.066;2023-08-24T11:13:05;101043.19;;;25.82;100.00
60355;BME280;46198;51.464;-0.066;2023-08-24T11:15:34;101046.97;;;25.86;100.00
60355;BME280;46198;51.464;-0.066;2023-08-24T11:18:23;101044.03;;;26.14;100.00
60355;BME280;46198;51.464;-0.066;2023-08-24T11:20:54;101050.28;;;25.88;100.00
60355;BME280;46198;51.464;-0.066;2023-08-24T11:23:24;101048.66;;;26.27;100.00
60355;BME280;46198;51.464;-0.066;2023-08-24T11:25:53;101051.31;;;26.32;100.00
60355;BME280;46198;51.464;-0.066;2023-08-24T11:28:24;101041.63;;;26.21;100.00
60355;BME280;46198;51.464;-0.066;2023-08-24T11:30:53;101041.53;;;26.43;100.00
60355;BME280;46198;51.464;-0.066;2023-08-24T11:33:28;101032.72;;;26.50;100.00
60355;BME280;46198;51.464;-0.066;2023-08-24T11:35:58;101028.25;;;26.40;100.00
60355;BME280;46198;51.464;-0.066;2023-08-24T11:38:36;101026.94;;;26.38;100.00
60355;BME280;46198;51.464;-0.066;2023-08-24T11:41:13;101020.91;;;26.44;100.00
60355;BME280;46198;51.464;-0.066;2023-08-24T11:43:42;101021.84;;;26.00;100.00
60355;BME280;46198;51.464;-0.066;2023-08-24T11:46:11;101020.72;;;26.01;100.00
60355;BME280;46198;51.464;-0.066;2023-08-24T11:48:40;101013.22;;;26.01;100.00
60355;BME280;46198;51.464;-0.066;2023-08-24T11:51:08;100995.34;;;26.02;100.00
60355;BME280;46198;51.464;-0.066;2023-08-24T11:53:41;100992.41;;;25.99;100.00
60355;BME280;46198;51.464;-0.066;2023-08-24T11:56:10;100995.31;;;25.94;100.00
60355;BME280;46198;51.464;-0.066;2023-08-24T11:58:39;100990.91;;;25.93;100.00
60355;BME280;46198;51.464;-0.066;2023-08-24T12:01:08;100986.03;;;25.76;100.00
60355;BME280;46198;51.464;-0.066;2023-08-24T12:03:36;100986.47;;;25.38;100.00
60355;BME280;46198;51.464;-0.066;2023-08-24T12:06:10;100985.53;;;25.51;100.00
60355;BME280;46198;51.464;-0.066;2023-08-24T12:08:41;100989.78;;;25.49;100.00
60355;BME280;46198;51.464;-0.066;2023-08-24T12:11:12;100983.88;;;25.41;100.00
60355;BME280;46198;51.464;-0.066;2023-08-24T12:13:45;100985.06;;;25.27;100.00
60355;BME280;46198;51.464;-0.066;2023-08-24T12:16:15;100981.66;;;25.30;100.00
60355;BME280;46198;51.464;-0.066;2023-08-24T12:18:47;100984.16;;;25.40;100.00
60355;BME280;46198;51.464;-0.066;2023-08-24T12:21:16;100980.63;;;25.26;100.00
60355;BME280;46198;51.464;-0.066;2023-08-24T12:23:55;100980.25;;;25.18;100.00
60355;BME280;46198;51.464;-0.066;2023-08-24T12:26:23;100983.84;;;25.05;100.00
60355;BME280;46198;51.464;-0.066;2023-08-24T12:28:51;100988.59;;;25.05;100.00
60355;BME280;46198;51.464;-0.066;2023-08-24T12:31:20;100991.41;;;24.91;100.00
60355;BME280;46198;51.464;-0.066;2023-08-24T12:33:59;100993.66;;;25.16;100.00
60355;BME280;46198;51.464;-0.066;2023-08-24T12:36:27;100988.22;;;25.34;100.00
60355;BME280;46198;51.464;-0.066;2023-08-24T12:38:57;100993.69;;;24.89;100.00
60355;BME280;46198;51.464;-0.066;2023-08-24T12:41:26;100977.16;;;24.84;100.00
60355;BME280;46198;51.464;-0.066;2023-08-24T12:43:54;100965.59;;;24.90;100.00